TimeEDT,TemperatureF,Dew PointF,Humidity,Sea Level PressureIn,VisibilityMPH,Wind Direction,Wind SpeedMPH,Gust SpeedMPH,PrecipitationIn,Events,Conditions,WindDirDegrees,DateUTC
12:15 AM,49.5,44.6,83,30.16,10.0,Calm,Calm,-,N/A,,Clear,0,2013-09-15 04:15:00
12:35 AM,48.0,44.1,86,30.17,10.0,SSW,3.5,-,N/A,,Clear,200,2013-09-15 04:35:00
12:55 AM,47.5,44.2,89,30.17,10.0,Calm,Calm,-,N/A,,Clear,0,2013-09-15 04:55:00
1:15 AM,48.6,43.2,82,30.17,10.0,West,4.6,-,N/A,,Clear,270,2013-09-15 05:15:00
1:35 AM,46.8,43.0,87,30.16,10.0,Calm,Calm,-,N/A,,Clear,0,2013-09-15 05:35:00
1:55 AM,46.4,43.7,90,30.17,10.0,Calm,Calm,-,N/A,,Clear,0,2013-09-15 05:55:00
2:15 AM,48.0,42.4,81,30.17,10.0,Calm,Calm,-,N/A,,Clear,0,2013-09-15 06:15:00
2:35 AM,45.1,42.8,91,30.17,10.0,Calm,Calm,-,N/A,,Clear,0,2013-09-15 06:35:00
2:55 AM,45.7,43.3,92,30.17,10.0,Calm,Calm,-,N/A,,Clear,0,2013-09-15 06:55:00
3:15 AM,44.8,42.8,93,30.17,10.0,Calm,Calm,-,N/A,,Clear,0,2013-09-15 07:15:00
3:35 AM,44.1,41.7,91,30.17,10.0,Calm,Calm,-,N/A,,Clear,0,2013-09-15 07:35:00
3:55 AM,43.5,42.3,95,30.17,10.0,Calm,Calm,-,N/A,,Clear,0,2013-09-15 07:55:00
4:15 AM,43.9,42.6,95,30.17,10.0,Calm,Calm,-,N/A,,Clear,0,2013-09-15 08:15:00
4:35 AM,43.9,42.4,95,30.18,10.0,Calm,Calm,-,N/A,,Clear,0,2013-09-15 08:35:00
4:55 AM,42.6,41.5,96,30.18,10.0,Calm,Calm,-,N/A,,Clear,0,2013-09-15 08:55:00
5:15 AM,43.5,42.4,96,30.18,10.0,Calm,Calm,-,N/A,,Clear,0,2013-09-15 09:15:00
5:35 AM,43.7,42.4,95,30.18,10.0,Calm,Calm,-,N/A,,Clear,0,2013-09-15 09:35:00
5:53 AM,44.6,42.8,93,30.18,10.0,Calm,Calm,-,N/A,,Clear,0,2013-09-15 09:53:00
6:53 AM,41.0,41.0,100,30.20,10.0,Calm,Calm,-,N/A,,Partly Cloudy,0,2013-09-15 10:53:00
8:53 AM,48.2,46.4,93,30.23,10.0,Calm,Calm,-,N/A,,Partly Cloudy,0,2013-09-15 12:53:00
9:53 AM,51.8,46.4,82,30.23,10.0,Calm,Calm,-,N/A,,Scattered Clouds,0,2013-09-15 13:53:00
10:53 AM,57.2,46.4,67,30.23,10.0,Calm,Calm,-,N/A,,Scattered Clouds,0,2013-09-15 14:53:00
11:53 AM,62.6,46.4,55,30.20,10.0,Calm,Calm,-,N/A,,Scattered Clouds,0,2013-09-15 15:53:00
12:53 PM,66.2,44.6,46,30.17,10.0,SW,6.9,-,N/A,,Mostly Cloudy,220,2013-09-15 16:53:00
1:53 PM,68.0,44.6,43,30.15,10.0,SW,8.1,-,N/A,,Clear,220,2013-09-15 17:53:00
2:53 PM,69.8,46.4,43,30.13,10.0,SW,6.9,-,N/A,,Clear,220,2013-09-15 18:53:00
3:53 PM,71.6,44.6,38,30.12,10.0,West,5.8,-,N/A,,Clear,280,2013-09-15 19:53:00
4:53 PM,69.8,46.4,43,30.10,10.0,SW,6.9,-,N/A,,Clear,230,2013-09-15 20:53:00
5:53 PM,69.8,46.4,43,30.09,10.0,SSW,6.9,-,N/A,,Clear,200,2013-09-15 21:53:00
6:53 PM,66.2,50.0,56,30.09,10.0,Calm,Calm,-,N/A,,Clear,0,2013-09-15 22:53:00
7:53 PM,64.4,50.0,59,30.09,10.0,Calm,Calm,-,N/A,,Clear,0,2013-09-15 23:53:00
8:53 PM,64.4,51.8,64,30.10,10.0,Calm,Calm,-,N/A,,Clear,0,2013-09-16 00:53:00
9:15 PM,60.8,53.1,76,30.09,10.0,Calm,Calm,-,N/A,,Scattered Clouds,0,2013-09-16 01:15:00
9:35 PM,60.6,52.7,75,30.10,10.0,Calm,Calm,-,N/A,,Scattered Clouds,0,2013-09-16 01:35:00
9:55 PM,62.2,51.8,69,30.10,10.0,Calm,Calm,-,N/A,,Scattered Clouds,0,2013-09-16 01:55:00
10:15 PM,62.8,51.3,66,30.10,10.0,Calm,Calm,-,N/A,,Clear,0,2013-09-16 02:15:00
10:35 PM,60.6,52.2,74,30.10,10.0,Calm,Calm,-,N/A,,Clear,0,2013-09-16 02:35:00
10:55 PM,60.3,52.7,76,30.09,10.0,Calm,Calm,-,N/A,,Clear,0,2013-09-16 02:55:00
11:15 PM,61.0,52.7,74,30.09,10.0,Calm,Calm,-,N/A,,Clear,0,2013-09-16 03:15:00
11:35 PM,61.3,52.7,73,30.09,10.0,Calm,Calm,-,N/A,,Clear,0,2013-09-16 03:35:00
11:55 PM,59.9,52.9,78,30.09,10.0,Calm,Calm,-,N/A,,Clear,0,2013-09-16 03:55:00